createdAt,value
2018-10-11T00:01:20.017Z,21.07
2018-10-11T00:05:23.782Z,20.63
2018-10-11T00:09:27.531Z,21.93
2018-10-11T00:13:31.264Z,22.33
2018-10-11T00:17:34.989Z,22.47
2018-10-11T00:21:39.202Z,20.83
2018-10-11T00:25:42.962Z,21.63
2018-10-11T00:29:46.724Z,20.87
2018-10-11T00:33:50.449Z,20.37
2018-10-11T00:37:54.256Z,22.73
2018-10-11T00:41:58.082Z,21.40
2018-10-11T00:46:01.813Z,20.70
2018-10-11T00:50:05.585Z,22.17
2018-10-11T00:54:09.565Z,21.73
2018-10-11T00:58:13.310Z,21.80
2018-10-11T01:02:17.018Z,22.43
2018-10-11T01:06:20.757Z,21.50
2018-10-11T01:10:24.553Z,20.90
2018-10-11T01:14:28.375Z,21.00
2018-10-11T01:18:32.205Z,21.33
2018-10-11T01:22:35.899Z,22.33
2018-10-11T01:26:39.742Z,22.63
2018-10-11T01:30:48.719Z,22.37
2018-10-11T01:34:52.465Z,22.40
2018-10-11T01:38:56.305Z,21.27
2018-10-11T01:43:04.654Z,22.07
2018-10-11T01:47:08.505Z,21.30
2018-10-11T01:51:12.325Z,22.17
2018-10-11T01:55:16.069Z,22.60
2018-10-11T01:59:19.784Z,22.00
2018-10-11T02:03:23.545Z,21.03
2018-10-11T02:07:27.237Z,22.93
2018-10-11T02:11:30.966Z,21.93
2018-10-11T02:15:34.686Z,22.07
2018-10-11T02:19:38.446Z,22.87
2018-10-11T02:23:42.286Z,23.60
2018-10-11T02:27:45.998Z,24.87
2018-10-11T02:31:49.757Z,23.50
2018-10-11T02:35:53.532Z,24.67
2018-10-11T02:39:57.413Z,21.20
2018-10-11T02:44:01.216Z,24.07
2018-10-11T02:48:05.547Z,24.97
2018-10-11T02:52:09.321Z,23.70
2018-10-11T02:56:13.349Z,24.40
2018-10-11T03:00:17.158Z,27.43
2018-10-11T03:04:21.013Z,24.73
2018-10-11T03:08:25.930Z,24.97
2018-10-11T03:12:29.684Z,25.97
2018-10-11T03:16:33.418Z,23.40
2018-10-11T03:20:37.178Z,25.50
2018-10-11T03:24:41.193Z,27.30
2018-10-11T03:28:44.909Z,26.87
2018-10-11T03:32:48.623Z,26.33
2018-10-11T03:36:52.373Z,26.67
2018-10-11T03:40:56.102Z,25.73
2018-10-11T03:44:59.833Z,24.70
2018-10-11T03:49:03.556Z,25.27
2018-10-11T03:53:07.356Z,25.63
2018-10-11T03:57:13.278Z,24.87
2018-10-11T04:01:18.626Z,24.97
2018-10-11T04:05:22.400Z,24.47
2018-10-11T04:09:26.108Z,27.83
2018-10-11T04:13:29.909Z,26.40
2018-10-11T04:17:33.737Z,27.60
2018-10-11T04:21:37.468Z,27.73
2018-10-11T04:25:41.194Z,27.50
2018-10-11T04:29:44.927Z,27.37
2018-10-11T04:33:48.633Z,28.13
2018-10-11T04:37:52.398Z,30.37
2018-10-11T04:41:56.221Z,27.23
2018-10-11T04:45:59.949Z,29.13
2018-10-11T04:50:03.681Z,25.17
2018-10-11T04:54:07.442Z,27.10
2018-10-11T04:58:11.219Z,26.27
2018-10-11T05:02:14.983Z,27.17
2018-10-11T05:06:18.747Z,27.63
2018-10-11T05:10:22.493Z,28.63
2018-10-11T05:14:26.442Z,27.13
2018-10-11T05:18:30.324Z,27.37
2018-10-11T05:22:34.090Z,26.47
2018-10-11T05:26:37.876Z,24.63
2018-10-11T05:30:43.885Z,27.50
2018-10-11T05:34:47.771Z,30.40
2018-10-11T05:38:51.548Z,27.57
2018-10-11T05:42:55.363Z,26.73
2018-10-11T05:46:59.312Z,28.43
2018-10-11T05:51:04.606Z,27.97
2018-10-11T05:55:08.393Z,27.53
2018-10-11T05:59:12.482Z,27.10
2018-10-11T06:03:16.264Z,27.67
2018-10-11T06:07:20.110Z,27.00
2018-10-11T06:11:23.940Z,28.77
2018-10-11T06:15:27.730Z,27.10
2018-10-11T06:19:31.546Z,29.93
2018-10-11T06:23:35.359Z,30.80
2018-10-11T06:27:39.179Z,29.40
2018-10-11T06:31:43.060Z,30.63
2018-10-11T06:35:46.996Z,29.63
2018-10-11T06:39:50.842Z,32.60
2018-10-11T06:43:54.669Z,31.97
2018-10-11T06:48:00.461Z,33.60
2018-10-11T06:52:04.262Z,33.97
2018-10-11T06:56:07.959Z,32.60
2018-10-11T07:00:11.795Z,33.63
2018-10-11T07:04:15.502Z,32.97
2018-10-11T07:08:19.324Z,33.57
2018-10-11T07:12:23.118Z,36.43
2018-10-11T07:16:26.834Z,34.03
2018-10-11T07:20:30.599Z,33.33
2018-10-11T07:24:34.411Z,30.43
2018-10-11T07:28:38.212Z,31.33
2018-10-11T07:32:41.915Z,32.07
2018-10-11T07:36:45.610Z,32.40
2018-10-11T07:40:49.453Z,31.43
2018-10-11T07:44:53.177Z,29.47
2018-10-11T07:48:56.882Z,26.77
2018-10-11T07:53:00.649Z,27.53
2018-10-11T07:57:04.712Z,28.43
2018-10-11T08:01:08.498Z,28.23
2018-10-11T08:05:12.352Z,27.37
2018-10-11T08:09:16.112Z,26.57
2018-10-11T08:13:19.909Z,28.70
2018-10-11T08:17:23.988Z,25.87
2018-10-11T08:21:27.351Z,24.40
2018-10-11T08:25:31.370Z,27.03
2018-10-11T08:29:34.900Z,23.00
2018-10-11T08:33:38.631Z,18.87
2018-10-11T08:37:42.447Z,16.53
2018-10-11T08:41:46.127Z,16.27
2018-10-11T08:45:49.851Z,16.47
2018-10-11T08:49:53.633Z,15.60
2018-10-11T08:54:01.579Z,14.50
2018-10-11T08:58:05.391Z,14.60
2018-10-11T09:02:09.410Z,14.47
2018-10-11T09:06:13.129Z,14.10
2018-10-11T09:10:16.861Z,14.50
2018-10-11T09:14:20.585Z,13.53
2018-10-11T09:18:24.399Z,12.90
2018-10-11T09:22:28.121Z,13.23
2018-10-11T09:26:31.914Z,12.90
2018-10-11T09:30:35.693Z,13.57
2018-10-11T09:34:39.466Z,14.13
2018-10-11T09:38:43.201Z,12.27
2018-10-11T09:42:46.954Z,13.03
2018-10-11T09:46:50.679Z,12.10
2018-10-11T09:50:54.418Z,12.10
2018-10-11T09:54:58.425Z,12.47
2018-10-11T09:59:02.051Z,12.33
2018-10-11T10:03:05.923Z,13.20
2018-10-11T10:07:10.086Z,13.80
2018-10-11T10:11:13.785Z,11.43
2018-10-11T10:15:17.538Z,13.63
2018-10-11T10:19:21.214Z,12.90
2018-10-11T10:23:24.920Z,12.17
2018-10-11T10:27:28.756Z,11.80
2018-10-11T10:31:32.425Z,12.30
2018-10-11T10:35:36.200Z,12.17
2018-10-11T10:39:39.937Z,11.43
2018-10-11T10:43:43.733Z,11.50
2018-10-11T10:47:47.466Z,10.37
2018-10-11T10:51:51.244Z,11.13
2018-10-11T10:55:54.957Z,11.63
2018-10-11T10:59:58.674Z,10.93
2018-10-11T11:04:02.431Z,11.23
2018-10-11T11:08:06.180Z,12.20
2018-10-11T11:12:09.885Z,11.10
2018-10-11T11:16:14.182Z,11.70
2018-10-11T11:20:17.871Z,10.80
2018-10-11T11:24:21.667Z,12.03
2018-10-11T11:28:25.450Z,11.20
2018-10-11T11:32:29.175Z,11.07
2018-10-11T11:36:32.949Z,10.50
2018-10-11T11:40:36.631Z,10.43
2018-10-11T11:44:40.364Z,10.83
2018-10-11T11:48:45.015Z,10.73
2018-10-11T11:52:48.725Z,10.60
2018-10-11T11:56:52.935Z,10.67
2018-10-11T12:00:56.654Z,10.47
2018-10-11T12:05:00.564Z,10.57
2018-10-11T12:09:07.006Z,10.40
2018-10-11T12:13:11.896Z,9.77
2018-10-11T12:17:15.614Z,9.83
2018-10-11T12:21:19.306Z,10.47
2018-10-11T12:25:23.122Z,10.20
2018-10-11T12:29:26.853Z,9.60
2018-10-11T12:33:30.567Z,9.13
2018-10-11T12:37:34.403Z,9.13
2018-10-11T12:41:38.166Z,10.60
2018-10-11T12:45:42.324Z,9.77
2018-10-11T12:49:48.468Z,9.37
2018-10-11T12:53:49.806Z,9.37
2018-10-11T12:57:53.506Z,9.77
2018-10-11T13:01:57.215Z,9.57
2018-10-11T13:06:00.904Z,10.70
2018-10-11T13:10:04.903Z,9.77
2018-10-11T13:14:08.717Z,9.67
2018-10-11T13:18:21.922Z,8.67
2018-10-11T13:22:26.139Z,10.00
2018-10-11T13:26:30.239Z,10.00
2018-10-11T13:30:34.317Z,8.90
2018-10-11T13:34:38.072Z,9.60
2018-10-11T13:38:41.837Z,9.17
2018-10-11T13:42:45.551Z,8.37
2018-10-11T13:46:49.392Z,9.73
2018-10-11T13:50:53.780Z,9.50
2018-10-11T13:54:57.497Z,9.90
2018-10-11T13:59:05.013Z,9.43
2018-10-11T14:03:05.096Z,9.37
2018-10-11T14:07:08.794Z,9.27
2018-10-11T14:11:12.593Z,8.97
2018-10-11T14:15:16.339Z,9.50
2018-10-11T14:19:20.079Z,9.33
2018-10-11T14:23:23.861Z,9.07
2018-10-11T14:27:27.711Z,8.80
2018-10-11T14:31:31.442Z,8.63
2018-10-11T14:35:35.200Z,8.63
2018-10-11T14:39:38.950Z,8.50
2018-10-11T14:43:42.717Z,8.87
2018-10-11T14:47:46.451Z,8.33
2018-10-11T14:51:50.204Z,8.63
2018-10-11T14:55:54.006Z,8.53
2018-10-11T14:59:57.829Z,8.67
2018-10-11T15:04:01.575Z,8.13
2018-10-11T15:08:05.304Z,8.70
2018-10-11T15:12:09.053Z,8.30
2018-10-11T15:16:12.821Z,8.40
2018-10-11T15:20:16.547Z,8.43
2018-10-11T15:24:20.290Z,8.53
2018-10-11T15:28:23.978Z,8.30
2018-10-11T15:32:27.710Z,8.47
2018-10-11T15:36:32.646Z,8.47
2018-10-11T15:40:36.472Z,8.60
2018-10-11T15:44:40.199Z,9.43
2018-10-11T15:48:43.883Z,9.13
2018-10-11T15:52:47.602Z,8.67
2018-10-11T15:56:51.365Z,8.23
2018-10-11T16:00:55.106Z,8.67
2018-10-11T16:04:58.829Z,7.67
2018-10-11T16:09:02.637Z,7.80
2018-10-11T16:13:06.337Z,8.23
2018-10-11T16:17:10.098Z,7.17
2018-10-11T16:21:13.835Z,8.23
2018-10-11T16:25:17.660Z,8.77
2018-10-11T16:29:21.367Z,7.90
2018-10-11T16:33:25.134Z,7.77
2018-10-11T16:37:28.947Z,8.27
2018-10-11T16:41:32.670Z,8.00
2018-10-11T16:45:36.441Z,8.17
2018-10-11T16:49:40.130Z,8.53
2018-10-11T16:53:43.901Z,8.10
2018-10-11T16:57:47.633Z,8.40
2018-10-11T17:01:51.419Z,8.93
2018-10-11T17:05:55.168Z,9.03
2018-10-11T17:09:58.997Z,9.03
2018-10-11T17:14:02.663Z,10.10
2018-10-11T17:18:06.590Z,8.93
2018-10-11T17:22:10.384Z,8.87
2018-10-11T17:26:14.324Z,9.63
2018-10-11T17:30:18.271Z,9.87
2018-10-11T17:34:22.004Z,9.47
2018-10-11T17:38:25.765Z,9.80
2018-10-11T17:42:29.521Z,9.13
2018-10-11T17:46:33.602Z,10.27
2018-10-11T17:50:37.332Z,10.13
2018-10-11T17:54:45.276Z,9.93
2018-10-11T17:58:49.018Z,10.73
2018-10-11T18:02:52.767Z,10.77
2018-10-11T18:06:56.535Z,10.50
2018-10-11T18:11:00.329Z,10.50
2018-10-11T18:15:04.084Z,10.57
2018-10-11T18:19:07.946Z,12.30
2018-10-11T18:23:11.654Z,10.70
2018-10-11T18:27:15.373Z,11.83
2018-10-11T18:31:19.068Z,13.03
2018-10-11T18:35:22.934Z,12.83
2018-10-11T18:39:26.682Z,13.33
2018-10-11T18:43:30.671Z,12.67
2018-10-11T18:47:34.464Z,11.53
2018-10-11T18:51:38.300Z,12.10
2018-10-11T18:55:42.027Z,11.33
2018-10-11T18:59:45.798Z,12.30
2018-10-11T19:03:49.501Z,11.30
2018-10-11T19:07:53.258Z,11.63
2018-10-11T19:11:56.979Z,12.07
2018-10-11T19:16:00.713Z,11.37
2018-10-11T19:20:04.560Z,11.83
2018-10-11T19:24:08.437Z,11.00
2018-10-11T19:28:12.146Z,11.87
2018-10-11T19:32:15.848Z,11.47
2018-10-11T19:36:19.625Z,11.90
2018-10-11T19:40:23.382Z,11.90
2018-10-11T19:44:27.102Z,11.60
2018-10-11T19:48:30.909Z,11.20
2018-10-11T19:52:34.637Z,11.80
2018-10-11T19:56:38.360Z,12.47
2018-10-11T20:00:42.134Z,12.47
2018-10-11T20:04:45.860Z,12.93
2018-10-11T20:08:49.586Z,11.93
2018-10-11T20:12:53.271Z,12.07
2018-10-11T20:16:56.985Z,11.80
2018-10-11T20:21:00.695Z,11.73
2018-10-11T20:25:04.511Z,11.30
2018-10-11T20:29:08.270Z,11.77
2018-10-11T20:33:11.978Z,12.87
2018-10-11T20:37:15.731Z,13.13
2018-10-11T20:41:19.437Z,14.37
2018-10-11T20:45:23.165Z,14.23
2018-10-11T20:49:26.950Z,13.33
2018-10-11T20:53:30.671Z,13.97
2018-10-11T20:57:34.397Z,13.53
2018-10-11T21:01:38.143Z,13.93
2018-10-11T21:05:41.911Z,12.90
2018-10-11T21:09:45.618Z,12.67
2018-10-11T21:13:49.364Z,13.50
2018-10-11T21:17:53.101Z,13.07
2018-10-11T21:21:56.926Z,12.93
2018-10-11T21:26:00.812Z,13.33
2018-10-11T21:30:04.583Z,13.40
2018-10-11T21:34:08.331Z,14.07
2018-10-11T21:38:12.102Z,13.17
2018-10-11T21:42:15.903Z,12.63
2018-10-11T21:46:19.802Z,13.03
2018-10-11T21:50:23.485Z,12.13
2018-10-11T21:54:27.234Z,12.37
2018-10-11T21:58:30.941Z,11.93
2018-10-11T22:02:34.657Z,12.07
2018-10-11T22:06:38.488Z,12.43
2018-10-11T22:10:42.270Z,12.40
2018-10-11T22:14:46.116Z,12.00
2018-10-11T22:18:49.861Z,11.27
2018-10-11T22:22:53.601Z,12.03
2018-10-11T22:26:57.313Z,11.50
2018-10-11T22:31:00.985Z,12.03
2018-10-11T22:35:04.815Z,12.13
2018-10-11T22:39:10.602Z,10.47
2018-10-11T22:43:14.393Z,12.53
2018-10-11T22:47:18.209Z,11.40
2018-10-11T22:51:21.999Z,11.63
2018-10-11T22:55:26.627Z,12.67
2018-10-11T22:59:30.439Z,11.23
2018-10-11T23:03:34.152Z,12.27
2018-10-11T23:07:37.881Z,12.50
2018-10-11T23:11:41.574Z,11.97
2018-10-11T23:15:45.278Z,12.10
2018-10-11T23:41:59.152Z,12.67
2018-10-11T23:46:02.901Z,11.73
2018-10-11T23:50:06.739Z,12.93
2018-10-11T23:54:10.454Z,12.80
2018-10-11T23:58:14.145Z,11.33
